Terminal Aerodrome Forecast
Issued by NWS Milwaukee/Sullivan, WI

Current Version | Previous Version | Text Only | Print | Product List | Glossary On
Versions: 1 2 3 4 5 6 7 8 9 10 11 12 13 14 15 16 17 18 19 20 21 22 23 24 25 26 27 28 29 30 31 32 33 34 35 36 37 38 39 40 41 42 43 44 45 46 47 48 49 50
000
FTUS43 KMKX 021414 AAB
TAFMKE
TAF AMD
KMKE 021414Z 0214/0318 23017G24KT P6SM FEW150 SCT180
     FM021700 23020G31KT P6SM VCTS SCT050CB BKN150
     FM022100 22023G33KT P6SM VCTS SCT050CB BKN090
      TEMPO 0222/0302 3SM TSRA BKN040CB
     FM030300 27009KT P6SM SCT040 BKN090
     FM030600 28007KT P6SM SCT090=

USA.gov is the U.S. government's official web portal to all federal, state and local government web resources and services.